createdAt,value
2019-03-02T00:00:37.798Z,11.67
2019-03-02T00:03:25.787Z,11.90
2019-03-02T00:06:00.712Z,11.57
2019-03-02T00:08:27.423Z,12.17
2019-03-02T00:10:57.793Z,9.63
2019-03-02T00:13:28.515Z,9.13
2019-03-02T00:16:00.902Z,8.33
2019-03-02T00:18:49.407Z,9.07
2019-03-02T00:21:20.066Z,10.20
2019-03-02T00:23:54.307Z,10.80
2019-03-02T00:26:29.119Z,10.83
2019-03-02T00:29:00.263Z,8.23
2019-03-02T00:31:33.256Z,12.63
2019-03-02T00:34:01.063Z,9.13
2019-03-02T00:36:55.219Z,9.97
2019-03-02T00:39:21.959Z,11.23
2019-03-02T00:41:52.271Z,11.73
2019-03-02T00:44:23.706Z,8.20
2019-03-02T00:46:56.329Z,11.40
2019-03-02T00:49:24.580Z,9.60
2019-03-02T00:51:55.459Z,8.20
2019-03-02T00:54:28.052Z,12.23
2019-03-02T00:56:58.438Z,11.07
2019-03-02T00:59:28.796Z,8.87
2019-03-02T01:02:00.779Z,10.13
2019-03-02T01:04:30.448Z,8.97
2019-03-02T01:07:00.927Z,9.20
2019-03-02T01:09:31.298Z,10.67
2019-03-02T01:12:01.924Z,10.70
2019-03-02T01:14:33.159Z,8.87
2019-03-02T01:17:05.137Z,8.17
2019-03-02T01:19:35.690Z,10.67
2019-03-02T01:22:06.251Z,9.77
2019-03-02T01:24:38.939Z,12.70
2019-03-02T01:27:07.441Z,8.57
2019-03-02T01:29:38.530Z,10.60
2019-03-02T01:32:12.656Z,10.43
2019-03-02T01:34:42.283Z,8.67
2019-03-02T01:37:11.770Z,9.90
2019-03-02T01:39:42.153Z,10.83
2019-03-02T01:42:12.781Z,9.93
2019-03-02T01:44:43.711Z,13.23
2019-03-02T01:47:15.773Z,12.73
2019-03-02T01:49:44.802Z,14.33
2019-03-02T01:52:18.357Z,16.87
2019-03-02T01:54:52.541Z,14.60
2019-03-02T01:57:21.747Z,15.60
2019-03-02T01:59:52.062Z,12.77
2019-03-02T02:02:22.513Z,9.87
2019-03-02T02:04:54.599Z,12.30
2019-03-02T02:07:23.276Z,12.97
2019-03-02T02:09:53.827Z,8.97
2019-03-02T02:12:25.465Z,10.07
2019-03-02T02:15:00.701Z,8.50
2019-03-02T02:20:14.649Z,10.07
2019-03-02T02:22:43.566Z,12.17
2019-03-02T02:25:14.719Z,9.23
2019-03-02T02:27:46.436Z,9.37
2019-03-02T02:30:24.502Z,11.33
2019-03-02T02:33:02.810Z,10.13
2019-03-02T02:35:39.310Z,11.57
2019-03-02T02:38:01.740Z,10.83
2019-03-02T02:40:39.613Z,11.03
2019-03-02T02:43:10.349Z,11.30
2019-03-02T02:45:40.917Z,13.53
2019-03-02T02:48:33.704Z,8.90
2019-03-02T02:51:08.944Z,10.47
2019-03-02T02:53:34.790Z,10.77
2019-03-02T02:56:05.106Z,10.20
2019-03-02T02:58:35.424Z,8.60
2019-03-02T03:01:07.808Z,11.90
2019-03-02T03:03:38.189Z,11.27
2019-03-02T03:06:08.758Z,12.57
2019-03-02T03:08:40.142Z,8.73
2019-03-02T03:11:10.532Z,13.70
2019-03-02T03:13:42.015Z,10.57
2019-03-02T03:16:16.553Z,7.07
2019-03-02T03:18:47.025Z,8.17
2019-03-02T03:21:13.981Z,14.10
2019-03-02T03:23:45.244Z,10.37
2019-03-02T03:26:15.805Z,9.10
2019-03-02T03:28:46.363Z,9.47
2019-03-02T03:31:23.227Z,10.37
2019-03-02T03:33:47.772Z,13.00
2019-03-02T03:36:18.951Z,13.40
2019-03-02T03:38:53.600Z,9.67
2019-03-02T03:41:23.919Z,10.80
2019-03-02T03:43:54.370Z,11.23
2019-03-02T03:46:24.737Z,9.17
2019-03-02T03:48:56.273Z,14.10
2019-03-02T03:51:30.360Z,14.00
2019-03-02T03:54:01.589Z,10.67
2019-03-02T03:56:28.990Z,10.53
2019-03-02T03:59:00.183Z,10.13
2019-03-02T04:01:56.839Z,10.00
2019-03-02T04:04:24.820Z,11.23
2019-03-02T04:06:54.040Z,12.30
2019-03-02T04:09:25.181Z,12.07
2019-03-02T04:11:56.803Z,12.13
2019-03-02T04:14:27.887Z,9.30
2019-03-02T04:17:00.477Z,12.70
2019-03-02T04:19:35.938Z,11.10
2019-03-02T04:22:06.325Z,10.63
2019-03-02T04:24:39.686Z,9.20
2019-03-02T04:27:11.153Z,10.90
2019-03-02T04:29:38.388Z,8.03
2019-03-02T04:32:31.290Z,8.90
2019-03-02T04:35:02.748Z,10.43
2019-03-02T04:37:33.875Z,13.33
2019-03-02T04:40:05.038Z,12.83
2019-03-02T04:42:35.464Z,10.13
2019-03-02T04:45:09.297Z,9.83
2019-03-02T04:47:39.618Z,8.03
2019-03-02T04:50:10.217Z,10.80
2019-03-02T04:52:41.568Z,18.60
2019-03-02T04:55:14.703Z,10.23
2019-03-02T04:57:44.434Z,10.47
2019-03-02T05:03:03.557Z,8.87
2019-03-02T05:05:34.706Z,10.07
2019-03-02T05:08:06.338Z,13.70
2019-03-02T05:10:38.516Z,10.77
2019-03-02T05:13:09.974Z,12.10
2019-03-02T05:15:41.100Z,8.17
2019-03-02T05:18:14.783Z,12.03
2019-03-02T05:20:43.212Z,10.83
2019-03-02T05:23:14.359Z,13.37
2019-03-02T05:25:44.735Z,9.10
2019-03-02T05:28:15.613Z,10.27
2019-03-02T05:30:46.972Z,8.77
2019-03-02T05:33:18.416Z,13.60
2019-03-02T05:35:50.959Z,14.67
2019-03-02T05:38:20.094Z,7.97
2019-03-02T05:40:50.542Z,8.57
2019-03-02T05:43:23.581Z,11.27
2019-03-02T05:45:52.429Z,7.17
2019-03-02T05:48:22.619Z,8.97
2019-03-02T05:50:52.914Z,9.03
2019-03-02T05:53:26.829Z,8.17
2019-03-02T05:55:54.970Z,12.00
2019-03-02T05:58:24.661Z,8.73
2019-03-02T06:00:55.114Z,10.13
2019-03-02T06:03:47.659Z,8.43
2019-03-02T06:06:37.689Z,10.37
2019-03-02T06:09:13.963Z,12.47
2019-03-02T06:11:42.234Z,8.90
2019-03-02T06:14:13.688Z,7.57
2019-03-02T06:16:46.060Z,7.27
2019-03-02T06:19:23.220Z,6.70
2019-03-02T06:21:48.597Z,7.50
2019-03-02T06:24:41.085Z,6.23
2019-03-02T06:27:11.777Z,6.77
2019-03-02T06:30:04.810Z,8.60
2019-03-02T06:32:33.584Z,7.87
2019-03-02T06:35:04.319Z,5.50
2019-03-02T06:37:36.071Z,6.03
2019-03-02T06:40:07.159Z,4.90
2019-03-02T06:42:45.695Z,5.80
2019-03-02T06:45:22.054Z,7.03
2019-03-02T06:47:54.815Z,5.70
2019-03-02T06:50:23.359Z,6.47
2019-03-02T06:52:57.927Z,5.30
2019-03-02T06:55:28.130Z,9.07
2019-03-02T06:57:58.447Z,7.27
2019-03-02T07:00:28.836Z,7.20
2019-03-02T07:02:59.267Z,6.60
2019-03-02T07:05:33.335Z,7.77
2019-03-02T07:08:00.261Z,6.00
2019-03-02T07:10:33.068Z,5.53
2019-03-02T07:13:02.339Z,6.70
2019-03-02T07:15:32.969Z,5.50
2019-03-02T07:18:18.221Z,5.63
2019-03-02T07:20:48.540Z,4.60
2019-03-02T07:23:19.199Z,3.87
2019-03-02T07:25:51.476Z,5.63
2019-03-02T07:28:22.765Z,3.60
2019-03-02T07:31:14.601Z,5.97
2019-03-02T07:33:45.156Z,5.73
2019-03-02T07:36:15.534Z,4.23
2019-03-02T07:38:47.370Z,4.27
2019-03-02T07:41:21.836Z,5.40
2019-03-02T07:43:49.848Z,2.57
2019-03-02T07:46:20.459Z,4.00
2019-03-02T07:48:51.116Z,3.93
2019-03-02T07:51:22.269Z,3.10
2019-03-02T07:53:52.591Z,3.30
2019-03-02T07:56:23.784Z,4.43
2019-03-02T07:59:13.523Z,3.43
2019-03-02T08:01:44.969Z,4.23
2019-03-02T08:04:16.805Z,3.13
2019-03-02T08:06:47.506Z,2.50
2019-03-02T08:09:17.886Z,3.60
2019-03-02T08:11:48.971Z,2.60
2019-03-02T08:14:25.956Z,2.00
2019-03-02T08:17:15.478Z,2.30
2019-03-02T08:19:48.402Z,1.47
2019-03-02T08:22:17.984Z,1.70
2019-03-02T08:24:49.099Z,2.90
2019-03-02T08:27:19.484Z,3.50
2019-03-02T08:29:49.795Z,1.97
2019-03-02T08:32:21.148Z,2.10
2019-03-02T08:34:50.852Z,1.90
2019-03-02T08:37:21.291Z,2.40
2019-03-02T08:39:52.926Z,1.90
2019-03-02T08:42:24.071Z,1.87
2019-03-02T08:44:55.511Z,2.20
2019-03-02T08:47:25.885Z,2.73
2019-03-02T08:50:19.354Z,1.87
2019-03-02T08:53:08.862Z,2.53
2019-03-02T08:55:39.180Z,2.43
2019-03-02T08:58:09.498Z,2.53
2019-03-02T09:00:42.374Z,2.13
2019-03-02T09:03:17.853Z,2.10
2019-03-02T09:05:51.657Z,2.23
2019-03-02T09:11:01.787Z,5.03
2019-03-02T09:13:39.383Z,3.27
2019-03-02T09:16:29.062Z,4.07
2019-03-02T09:19:20.917Z,3.33
2019-03-02T09:21:50.384Z,5.07
2019-03-02T09:24:20.759Z,3.47
2019-03-02T09:26:51.141Z,3.87
2019-03-02T09:29:21.522Z,3.83
2019-03-02T09:31:51.829Z,5.77
2019-03-02T09:34:22.486Z,5.90
2019-03-02T09:36:53.839Z,4.90
2019-03-02T09:39:24.976Z,4.13
2019-03-02T09:41:58.047Z,8.20
2019-03-02T09:44:28.243Z,6.83
2019-03-02T09:46:58.562Z,4.60
2019-03-02T09:49:37.393Z,6.03
2019-03-02T09:52:05.619Z,6.10
2019-03-02T09:54:36.957Z,6.40
2019-03-02T09:57:07.406Z,4.13
2019-03-02T09:59:38.492Z,4.73
2019-03-02T10:02:29.261Z,4.70
2019-03-02T10:04:59.639Z,9.60
2019-03-02T10:07:30.033Z,6.70
2019-03-02T10:10:00.492Z,6.83
2019-03-02T10:12:30.855Z,6.00
2019-03-02T10:15:02.244Z,4.63
2019-03-02T10:17:34.863Z,7.50
2019-03-02T10:20:05.220Z,5.90
2019-03-02T10:22:35.287Z,7.73
2019-03-02T10:25:04.999Z,6.03
2019-03-02T10:27:35.379Z,3.30
2019-03-02T10:30:05.844Z,4.40
2019-03-02T10:32:58.346Z,7.03
2019-03-02T10:35:29.078Z,5.37
2019-03-02T10:37:59.459Z,7.73
2019-03-02T10:40:30.029Z,6.63
2019-03-02T10:43:00.551Z,6.00
2019-03-02T10:45:33.653Z,7.47
2019-03-02T10:48:02.217Z,4.23
2019-03-02T10:50:32.721Z,11.23
2019-03-02T10:53:03.284Z,7.07
2019-03-02T10:55:33.671Z,6.90
2019-03-02T10:58:05.076Z,5.80
2019-03-02T11:00:36.227Z,5.17
2019-03-02T11:03:06.606Z,14.63
2019-03-02T11:05:56.936Z,9.67
2019-03-02T11:08:28.627Z,4.80
2019-03-02T11:11:16.981Z,7.43
2019-03-02T11:14:08.542Z,6.70
2019-03-02T11:16:50.677Z,5.27
2019-03-02T11:19:20.999Z,9.70
2019-03-02T11:21:52.218Z,7.17
2019-03-02T11:24:22.604Z,10.23
2019-03-02T11:27:09.627Z,7.50
2019-03-02T11:29:53.058Z,9.37
2019-03-02T11:32:37.389Z,8.67
2019-03-02T11:37:58.027Z,13.82
2019-03-02T11:40:32.972Z,10.30
2019-03-02T11:43:19.002Z,7.70
2019-03-02T11:46:00.798Z,7.33
2019-03-02T11:48:37.670Z,8.13
2019-03-02T11:51:17.887Z,6.70
2019-03-02T11:54:07.646Z,7.47
2019-03-02T11:56:38.994Z,7.17
2019-03-02T11:59:15.573Z,9.43
2019-03-02T12:01:46.372Z,7.17
2019-03-02T12:04:20.477Z,7.90
2019-03-02T12:06:59.977Z,5.87
2019-03-02T12:09:54.654Z,8.57
2019-03-02T12:12:30.670Z,5.77
2019-03-02T12:15:07.174Z,7.40
2019-03-02T12:17:40.813Z,5.87
2019-03-02T12:20:08.867Z,6.97
2019-03-02T12:22:38.552Z,7.03
2019-03-02T12:25:27.046Z,9.20
2019-03-02T12:28:16.160Z,6.57
2019-03-02T12:30:57.074Z,6.43
2019-03-02T12:33:33.359Z,11.17
2019-03-02T12:36:06.624Z,6.40
2019-03-02T12:38:55.086Z,3.23
2019-03-02T12:41:28.022Z,4.80
2019-03-02T12:44:20.893Z,3.43
2019-03-02T12:46:58.161Z,9.73
2019-03-02T12:49:27.250Z,7.03
2019-03-02T12:52:00.304Z,8.87
2019-03-02T12:54:55.959Z,8.33
2019-03-02T12:57:45.478Z,7.23
2019-03-02T13:00:18.952Z,4.97
2019-03-02T13:02:58.775Z,7.07
2019-03-02T13:05:44.319Z,6.77
2019-03-02T13:08:36.582Z,4.90
2019-03-02T13:11:07.070Z,5.97
2019-03-02T13:13:56.608Z,6.03
2019-03-02T13:16:45.543Z,5.87
2019-03-02T13:19:33.055Z,5.23
2019-03-02T13:22:37.970Z,4.87
2019-03-02T13:25:14.500Z,7.33
2019-03-02T13:27:45.134Z,4.97
2019-03-02T13:30:18.295Z,5.93
2019-03-02T13:33:30.098Z,7.13
2019-03-02T13:36:09.067Z,3.37
2019-03-02T13:38:39.381Z,8.57
2019-03-02T13:41:12.139Z,5.77
2019-03-02T13:46:31.259Z,9.37
2019-03-02T13:49:08.233Z,6.57
2019-03-02T13:51:42.002Z,7.37
2019-03-02T13:54:12.421Z,5.27
2019-03-02T13:56:42.734Z,5.73
2019-03-02T13:59:15.896Z,6.40
2019-03-02T14:02:04.944Z,7.37
2019-03-02T14:04:39.044Z,4.83
2019-03-02T14:07:31.319Z,3.07
2019-03-02T14:10:12.105Z,3.77
2019-03-02T14:12:42.502Z,10.13
2019-03-02T14:15:31.932Z,4.23
2019-03-02T14:18:08.062Z,4.83
2019-03-02T14:20:50.329Z,7.43
2019-03-02T14:23:32.073Z,7.73
2019-03-02T14:26:06.604Z,3.43
2019-03-02T14:28:43.989Z,9.57
2019-03-02T14:31:20.133Z,5.40
2019-03-02T14:33:47.964Z,4.63
2019-03-02T14:36:30.639Z,3.50
2019-03-02T14:39:01.391Z,3.87
2019-03-02T14:41:36.407Z,5.13
2019-03-02T14:44:33.489Z,5.20
2019-03-02T14:47:11.578Z,4.60
2019-03-02T14:49:48.512Z,3.43
2019-03-02T14:52:22.764Z,3.47
2019-03-02T14:55:15.173Z,2.80
2019-03-02T14:58:00.108Z,6.13
2019-03-02T15:00:31.966Z,6.60
2019-03-02T15:03:20.856Z,6.33
2019-03-02T15:06:08.316Z,2.87
2019-03-02T15:08:54.693Z,6.10
2019-03-02T15:11:25.030Z,4.37
2019-03-02T15:13:58.178Z,4.10
2019-03-02T15:16:32.442Z,4.40
2019-03-02T15:19:06.408Z,7.30
2019-03-02T15:21:55.880Z,5.30
2019-03-02T15:24:26.195Z,3.37
2019-03-02T15:26:56.768Z,1.93
2019-03-02T15:29:46.281Z,4.10
2019-03-02T15:32:24.749Z,4.10
2019-03-02T15:34:59.105Z,5.90
2019-03-02T15:37:37.130Z,6.63
2019-03-02T15:40:19.062Z,5.60
2019-03-02T15:42:54.297Z,7.83
2019-03-02T15:45:27.019Z,7.17
2019-03-02T15:48:00.927Z,6.37
2019-03-02T15:50:34.492Z,5.20
2019-03-02T15:55:50.815Z,8.03
2019-03-02T15:58:36.946Z,5.37
2019-03-02T16:01:23.237Z,5.60
2019-03-02T16:04:05.153Z,5.87
2019-03-02T16:06:45.690Z,2.90
2019-03-02T16:09:31.242Z,5.33
2019-03-02T16:12:04.136Z,3.50
2019-03-02T16:14:39.228Z,5.40
2019-03-02T16:17:36.184Z,6.27
2019-03-02T16:20:18.740Z,9.67
2019-03-02T16:22:58.267Z,5.13
2019-03-02T16:25:46.413Z,6.23
2019-03-02T16:28:22.496Z,4.67
2019-03-02T16:30:55.280Z,6.63
2019-03-02T16:33:40.820Z,7.50
2019-03-02T16:36:20.651Z,5.33
2019-03-02T16:38:51.040Z,5.50
2019-03-02T16:41:39.546Z,5.53
2019-03-02T16:44:27.876Z,5.40
2019-03-02T16:47:01.397Z,4.77
2019-03-02T16:52:31.822Z,5.70
2019-03-02T16:55:17.216Z,8.30
2019-03-02T16:57:59.510Z,4.13
2019-03-02T17:00:32.516Z,2.70
2019-03-02T17:03:20.971Z,4.80
2019-03-02T17:06:10.915Z,4.90
2019-03-02T17:08:59.109Z,3.47
2019-03-02T17:11:35.372Z,8.53
2019-03-02T17:14:28.173Z,5.80
2019-03-02T17:17:11.894Z,6.03
2019-03-02T17:20:01.320Z,7.63
2019-03-02T17:22:28.997Z,5.23
2019-03-02T17:25:01.048Z,3.93
2019-03-02T17:27:58.237Z,7.50
2019-03-02T17:30:47.226Z,7.63
2019-03-02T17:33:17.562Z,7.73
2019-03-02T17:35:54.153Z,7.63
2019-03-02T17:38:27.224Z,6.43
2019-03-02T17:41:14.962Z,6.00
2019-03-02T17:43:54.585Z,4.77
2019-03-02T17:46:25.603Z,4.37
2019-03-02T17:48:56.941Z,6.77
2019-03-02T17:51:45.489Z,5.03
2019-03-02T17:54:18.382Z,7.30
2019-03-02T17:57:08.154Z,8.30
2019-03-02T17:59:39.697Z,5.33
2019-03-02T18:02:15.242Z,5.80
2019-03-02T18:04:54.546Z,5.47
2019-03-02T18:07:44.032Z,6.37
2019-03-02T18:10:22.046Z,8.37
2019-03-02T18:12:57.855Z,4.33
2019-03-02T18:15:33.726Z,10.73
2019-03-02T18:18:04.303Z,4.33
2019-03-02T18:20:34.877Z,6.40
2019-03-02T18:23:05.760Z,9.07
2019-03-02T18:25:36.364Z,6.63
2019-03-02T18:28:14.167Z,6.40
2019-03-02T18:30:43.738Z,8.57
2019-03-02T18:33:13.050Z,8.27
2019-03-02T18:35:43.366Z,8.13
2019-03-02T18:38:13.759Z,9.43
2019-03-02T18:40:44.370Z,7.13
2019-03-02T18:43:15.962Z,5.20
2019-03-02T18:45:47.343Z,4.13
2019-03-02T18:48:23.761Z,9.97
2019-03-02T18:50:59.291Z,7.77
2019-03-02T18:53:35.036Z,3.73
2019-03-02T18:56:01.333Z,7.93
2019-03-02T18:58:30.967Z,6.60
2019-03-02T19:01:03.398Z,6.93
2019-03-02T19:03:34.797Z,8.77
2019-03-02T19:06:05.339Z,10.13
2019-03-02T19:08:43.256Z,9.27
2019-03-02T19:11:15.793Z,6.53
2019-03-02T19:13:45.150Z,7.77
2019-03-02T19:16:15.174Z,5.73
2019-03-02T19:18:45.557Z,7.07
2019-03-02T19:21:16.208Z,6.33
2019-03-02T19:23:46.641Z,5.13
2019-03-02T19:26:17.015Z,8.60
2019-03-02T19:28:47.585Z,6.97
2019-03-02T19:31:21.955Z,7.97
2019-03-02T19:33:51.415Z,10.27
2019-03-02T19:36:22.171Z,8.43
2019-03-02T19:38:52.949Z,9.17
2019-03-02T19:41:23.529Z,8.00
2019-03-02T19:43:54.325Z,6.87
2019-03-02T19:46:25.378Z,5.93
2019-03-02T19:49:03.423Z,10.60
2019-03-02T19:51:33.851Z,9.03
2019-03-02T19:54:04.420Z,9.43
2019-03-02T19:56:35.101Z,5.93
2019-03-02T19:59:05.478Z,10.00
2019-03-02T20:01:35.920Z,5.30
2019-03-02T20:04:06.234Z,7.53
2019-03-02T20:06:36.690Z,4.70
2019-03-02T20:09:27.458Z,5.43
2019-03-02T20:11:58.062Z,5.93
2019-03-02T20:14:28.626Z,7.37
2019-03-02T20:16:59.001Z,5.33
2019-03-02T20:19:29.418Z,5.50
2019-03-02T20:22:01.001Z,6.03
2019-03-02T20:24:31.329Z,7.10
2019-03-02T20:27:01.718Z,10.67
2019-03-02T20:29:32.297Z,9.93
2019-03-02T20:32:02.935Z,5.73
2019-03-02T20:34:34.014Z,5.63
2019-03-02T20:37:23.998Z,7.40
2019-03-02T20:40:01.699Z,8.07
2019-03-02T20:42:32.271Z,8.37
2019-03-02T20:45:02.642Z,6.23
2019-03-02T20:47:34.280Z,7.30
2019-03-02T20:50:04.664Z,8.63
2019-03-02T20:52:35.056Z,8.83
2019-03-02T20:55:05.420Z,7.23
2019-03-02T20:57:35.870Z,7.83
2019-03-02T21:03:03.812Z,6.83
2019-03-02T21:05:40.291Z,9.07
2019-03-02T21:08:11.667Z,7.57
2019-03-02T21:10:42.237Z,9.73
2019-03-02T21:13:12.796Z,8.40
2019-03-02T21:16:05.583Z,7.40
2019-03-02T21:18:35.907Z,10.43
2019-03-02T21:21:06.293Z,8.80
2019-03-02T21:23:40.804Z,9.60
2019-03-02T21:26:11.131Z,10.77
2019-03-02T21:28:43.555Z,7.80
2019-03-02T21:31:13.984Z,11.83
2019-03-02T21:33:44.613Z,8.43
2019-03-02T21:36:15.178Z,8.37
2019-03-02T21:38:46.297Z,9.63
2019-03-02T21:41:16.865Z,9.77
2019-03-02T21:43:47.432Z,8.43
2019-03-02T21:46:18.037Z,10.50
2019-03-02T21:59:50.420Z,8.57
2019-03-02T22:02:20.798Z,10.37
2019-03-02T22:04:51.978Z,10.20
2019-03-02T22:07:22.549Z,11.40
2019-03-02T22:09:53.957Z,10.53
2019-03-02T22:12:25.619Z,11.50
2019-03-02T22:14:56.584Z,10.10
2019-03-02T22:17:27.162Z,8.83
2019-03-02T22:25:39.231Z,9.90
2019-03-02T22:28:49.434Z,10.60
2019-03-02T22:31:59.739Z,15.27
2019-03-02T22:36:03.342Z,9.17
2019-03-02T23:32:03.155Z,12.77
2019-03-02T23:39:12.635Z,8.13
2019-03-02T23:41:43.083Z,10.37
2019-03-02T23:44:14.438Z,10.77
2019-03-02T23:46:45.116Z,10.23
2019-03-02T23:49:15.425Z,9.20
2019-03-02T23:51:46.002Z,14.00
2019-03-02T23:54:16.642Z,8.60
2019-03-02T23:56:47.088Z,10.70
2019-03-02T23:59:18.232Z,20.37
